createdAt,value
2019-02-12T00:01:09.793Z,3.29
2019-02-12T00:07:04.777Z,3.17
2019-02-12T00:12:59.780Z,1.86
2019-02-12T00:18:54.783Z,1.97
2019-02-12T00:24:49.803Z,1.38
2019-02-12T00:30:44.783Z,1.72
2019-02-12T00:36:39.799Z,2.46
2019-02-12T00:42:34.816Z,1.8
2019-02-12T00:48:29.806Z,1.79
2019-02-12T00:54:24.816Z,1
2019-02-12T01:00:19.809Z,0.95
2019-02-12T01:06:14.803Z,1.11
2019-02-12T01:12:09.851Z,2.16
2019-02-12T01:18:04.832Z,0.82
2019-02-12T01:23:59.814Z,1.28
2019-02-12T01:29:54.828Z,1.48
2019-02-12T01:35:49.830Z,0.85
2019-02-12T01:41:44.829Z,1.37
2019-02-12T01:47:39.822Z,3.17
2019-02-12T01:53:34.829Z,4.37
2019-02-12T01:59:29.846Z,3.77
2019-02-12T02:05:24.891Z,4.16
2019-02-12T02:11:19.827Z,3.35
2019-02-12T02:17:14.833Z,2.45
2019-02-12T02:23:09.863Z,3.47
2019-02-12T02:29:04.882Z,3.72
2019-02-12T02:34:59.873Z,3.1
2019-02-12T02:40:54.875Z,1.58
2019-02-12T02:46:49.901Z,2.46
2019-02-12T02:52:44.858Z,1.34
2019-02-12T02:58:39.898Z,2.1
2019-02-12T03:04:34.863Z,1.88
2019-02-12T03:10:29.862Z,2.25
2019-02-12T03:16:24.874Z,1.35
2019-02-12T03:22:19.880Z,1.53
2019-02-12T03:28:14.896Z,1.02
2019-02-12T03:34:09.933Z,1.6
2019-02-12T03:40:04.895Z,1.24
2019-02-12T03:45:59.896Z,1.43
2019-02-12T03:51:54.901Z,2.52
2019-02-12T03:57:49.908Z,1.29
2019-02-12T04:03:44.887Z,1.56
2019-02-12T04:09:39.904Z,2.12
2019-02-12T04:15:34.903Z,1.65
2019-02-12T04:21:29.967Z,2.43
2019-02-12T04:27:24.940Z,1.74
2019-02-12T04:33:19.937Z,1.45
2019-02-12T04:39:14.950Z,2.88
2019-02-12T04:45:09.914Z,2.5
2019-02-12T04:51:04.962Z,1.72
2019-02-12T04:56:59.917Z,2.62
2019-02-12T05:02:54.918Z,2.28
2019-02-12T05:08:49.954Z,3.1
2019-02-12T05:15:08.308Z,2.78
2019-02-12T05:20:39.944Z,4.47
2019-02-12T05:26:34.959Z,2.95
2019-02-12T05:32:29.931Z,3
2019-02-12T05:38:24.941Z,3.51
2019-02-12T05:44:19.956Z,2.78
2019-02-12T05:50:14.942Z,3.5
2019-02-12T05:56:09.945Z,1.78
2019-02-12T06:02:04.985Z,4.68
2019-02-12T06:07:59.987Z,3.61
2019-02-12T06:13:54.982Z,3.63
2019-02-12T06:19:49.976Z,7.24
2019-02-12T06:25:44.943Z,10.21
2019-02-12T06:31:39.972Z,10.61
2019-02-12T06:37:35.022Z,2.72
2019-02-12T06:43:29.989Z,3.34
2019-02-12T06:49:24.977Z,2.63
2019-02-12T06:55:19.981Z,3.1
2019-02-12T07:01:15.074Z,5.21
2019-02-12T07:07:10.003Z,4.11
2019-02-12T07:13:05.008Z,3.87
2019-02-12T07:19:00.009Z,1.92
2019-02-12T07:24:55.001Z,3.55
2019-02-12T07:30:49.998Z,6.46
2019-02-12T07:36:45.023Z,5.59
2019-02-12T07:42:40.107Z,8.04
2019-02-12T07:48:35.012Z,7.58
2019-02-12T07:54:30.060Z,7.57
2019-02-12T08:00:25.035Z,19.35
2019-02-12T08:06:20.023Z,13.61
2019-02-12T08:12:15.038Z,6.62
2019-02-12T08:18:10.018Z,11.68
2019-02-12T08:24:05.042Z,29.82
2019-02-12T08:30:00.034Z,47.96
2019-02-12T08:35:57.179Z,36.16
2019-02-12T08:41:50.059Z,14
2019-02-12T08:47:45.089Z,13.98
2019-02-12T08:53:40.046Z,22.77
2019-02-12T08:59:35.059Z,15.37
2019-02-12T09:05:30.054Z,20.28
2019-02-12T09:11:25.076Z,15.51
2019-02-12T09:17:20.070Z,31.73
2019-02-12T09:23:15.067Z,44.21
2019-02-12T09:29:10.096Z,23.3
2019-02-12T09:35:05.057Z,17.08
2019-02-12T09:41:00.081Z,19.43
2019-02-12T09:46:55.066Z,73.33
2019-02-12T09:52:50.050Z,86.22
2019-02-12T09:58:45.077Z,69.83
2019-02-12T10:04:40.088Z,70.11
2019-02-12T10:10:35.104Z,55.29
2019-02-12T10:16:30.078Z,16.24
2019-02-12T10:22:25.082Z,23.24
2019-02-12T10:28:20.117Z,9.83
2019-02-12T10:34:15.098Z,10.53
2019-02-12T10:40:10.107Z,10.95
2019-02-12T10:46:05.123Z,4.93
2019-02-12T10:52:00.124Z,0
2019-02-12T10:57:55.108Z,7.24
2019-02-12T11:03:50.128Z,18.34
2019-02-12T11:09:45.151Z,39.52
2019-02-12T11:15:40.133Z,37.86
2019-02-12T11:21:35.135Z,84.02
2019-02-12T11:27:30.147Z,26.85
2019-02-12T11:33:25.187Z,13.62
2019-02-12T11:39:20.153Z,17.8
2019-02-12T11:45:15.206Z,11.25
2019-02-12T11:51:10.157Z,5.27
2019-02-12T11:57:05.175Z,14.77
2019-02-12T12:03:00.151Z,7.9
2019-02-12T12:08:55.185Z,9.07
2019-02-12T12:14:50.160Z,11.31
2019-02-12T12:20:45.168Z,7.67
2019-02-12T12:26:40.240Z,5.9
2019-02-12T12:32:35.192Z,6.56
2019-02-12T12:38:30.188Z,9.07
2019-02-12T12:44:25.192Z,5.64
2019-02-12T12:50:20.196Z,9.37
2019-02-12T12:56:15.241Z,5.96
2019-02-12T13:02:10.237Z,6.01
2019-02-12T13:08:05.250Z,7.64
2019-02-12T13:14:00.237Z,6.1
2019-02-12T13:19:55.194Z,6.08
2019-02-12T13:25:50.234Z,6.54
2019-02-12T13:31:45.205Z,6.37
2019-02-12T13:37:40.209Z,5.02
2019-02-12T13:43:35.225Z,6.28
2019-02-12T13:49:30.242Z,6.67
2019-02-12T13:55:25.251Z,6.65
2019-02-12T14:01:20.227Z,3.35
2019-02-12T14:07:15.222Z,6.07
2019-02-12T14:13:10.231Z,5.17
2019-02-12T14:19:05.245Z,5.31
2019-02-12T14:25:00.270Z,4.44
2019-02-12T14:30:55.249Z,5.33
2019-02-12T14:36:50.267Z,5.81
2019-02-12T14:42:45.271Z,4.69
2019-02-12T14:48:40.277Z,5.14
2019-02-12T14:54:35.270Z,4.21
2019-02-12T15:00:30.306Z,5.26
2019-02-12T15:06:25.263Z,5.43
2019-02-12T15:12:20.306Z,5.36
2019-02-12T15:18:15.287Z,11.95
2019-02-12T15:24:10.288Z,6.44
2019-02-12T15:30:05.320Z,6.08
2019-02-12T15:36:00.285Z,5.68
2019-02-12T15:41:55.334Z,6.49
2019-02-12T15:47:50.290Z,7.33
2019-02-12T15:53:45.314Z,5.19
2019-02-12T15:59:40.311Z,3.89
2019-02-12T16:05:35.297Z,5.26
2019-02-12T16:11:30.331Z,7.09
2019-02-12T16:17:25.334Z,12.9
2019-02-12T16:23:20.321Z,8.88
2019-02-12T16:29:15.322Z,4.29
2019-02-12T16:35:10.312Z,6.44
2019-02-12T16:41:05.333Z,2.89
2019-02-12T16:47:00.368Z,5.33
2019-02-12T16:52:55.352Z,4.68
2019-02-12T16:58:50.341Z,2.99
2019-02-12T17:04:45.356Z,8.14
2019-02-12T17:10:40.363Z,12.16
2019-02-12T17:16:35.400Z,6.15
2019-02-12T17:22:30.376Z,6.08
2019-02-12T17:28:25.388Z,4.07
2019-02-12T17:34:20.366Z,5.62
2019-02-12T17:40:15.372Z,8.27
2019-02-12T17:46:10.384Z,5.28
2019-02-12T17:52:05.355Z,6.51
2019-02-12T17:58:00.402Z,4.3
2019-02-12T18:03:55.366Z,4.68
2019-02-12T18:09:50.358Z,3.37
2019-02-12T18:15:45.395Z,3.77
2019-02-12T18:21:40.368Z,6.1
2019-02-12T18:27:35.375Z,4.47
2019-02-12T18:33:30.411Z,5.97
2019-02-12T18:39:25.417Z,9.23
2019-02-12T18:45:20.399Z,6
2019-02-12T18:51:15.449Z,7.44
2019-02-12T18:57:10.406Z,7.33
2019-02-12T19:03:05.402Z,9.39
2019-02-12T19:09:00.445Z,8.25
2019-02-12T19:14:55.403Z,4.98
2019-02-12T19:20:50.412Z,5.63
2019-02-12T19:26:49.848Z,8.75
2019-02-12T19:32:40.427Z,10.73
2019-02-12T19:38:35.430Z,9.37
2019-02-12T19:44:30.429Z,7.61
2019-02-12T19:50:25.431Z,8.96
2019-02-12T19:56:20.442Z,7.79
2019-02-12T20:02:15.445Z,7.41
2019-02-12T20:08:10.491Z,5.01
2019-02-12T20:14:05.452Z,7.23
2019-02-12T20:20:00.436Z,6.2
2019-02-12T20:25:55.451Z,6.31
2019-02-12T20:31:50.484Z,5.8
2019-02-12T20:37:45.465Z,10.69
2019-02-12T20:43:40.467Z,10.4
2019-02-12T20:49:35.447Z,8.52
2019-02-12T20:55:30.472Z,9.33
2019-02-12T21:01:25.467Z,5.92
2019-02-12T21:07:20.497Z,10.46
2019-02-12T21:13:15.490Z,8.4
2019-02-12T21:19:10.476Z,11.49
2019-02-12T21:25:05.491Z,14.37
2019-02-12T21:31:00.545Z,16.37
2019-02-12T21:36:55.489Z,16.64
2019-02-12T21:42:50.505Z,15.53
2019-02-12T21:48:45.508Z,20.58
2019-02-12T21:54:40.524Z,15.56
2019-02-12T22:00:35.609Z,9.79
2019-02-12T22:06:30.536Z,8.23
2019-02-12T22:12:25.509Z,8.61
2019-02-12T22:18:20.525Z,11.77
2019-02-12T22:24:15.505Z,8.85
2019-02-12T22:30:10.511Z,8.18
2019-02-12T22:36:05.528Z,7.61
2019-02-12T22:42:00.532Z,10.39
2019-02-12T22:47:55.538Z,7.01
2019-02-12T22:53:50.552Z,7.32
2019-02-12T22:59:45.558Z,5.91
2019-02-12T23:05:40.541Z,67.29
2019-02-12T23:11:35.544Z,14.72
2019-02-12T23:17:30.566Z,8.03
2019-02-12T23:23:25.546Z,9.59
2019-02-12T23:29:20.534Z,6.97
2019-02-12T23:35:15.580Z,6.82
2019-02-12T23:41:10.564Z,7.28
2019-02-12T23:47:05.584Z,5.14
2019-02-12T23:53:00.567Z,6
2019-02-12T23:58:55.554Z,5.5
